createdAt,value
2018-05-07T00:01:26.624Z,11.40
2018-05-07T00:03:54.239Z,11.10
2018-05-07T00:06:21.887Z,10.90
2018-05-07T00:08:50.282Z,10.90
2018-05-07T00:11:17.931Z,10.60
2018-05-07T00:13:45.602Z,10.50
2018-05-07T00:16:13.508Z,10.60
2018-05-07T00:18:41.123Z,10.50
2018-05-07T00:21:08.766Z,10.50
2018-05-07T00:23:37.185Z,10.80
2018-05-07T00:26:04.844Z,10.60
2018-05-07T00:28:32.455Z,10.40
2018-05-07T00:31:00.111Z,10.40
2018-05-07T00:33:29.205Z,10.00
2018-05-07T00:35:56.863Z,10.30
2018-05-07T00:38:24.484Z,10.00
2018-05-07T00:40:52.127Z,10.10
2018-05-07T00:43:19.743Z,10.20
2018-05-07T00:45:47.355Z,10.30
2018-05-07T00:48:15.007Z,10.30
2018-05-07T00:50:42.803Z,10.40
2018-05-07T00:53:10.413Z,10.30
2018-05-07T00:55:38.767Z,10.00
2018-05-07T00:58:07.232Z,10.10
2018-05-07T01:00:34.846Z,10.30
2018-05-07T01:03:02.487Z,10.10
2018-05-07T01:05:30.091Z,10.10
2018-05-07T01:07:57.849Z,10.10
2018-05-07T01:10:25.467Z,10.00
2018-05-07T01:12:53.129Z,10.00
2018-05-07T01:15:20.783Z,10.30
2018-05-07T01:17:48.708Z,9.80
2018-05-07T01:20:16.363Z,10.00
2018-05-07T01:22:43.966Z,10.00
2018-05-07T01:25:11.617Z,9.60
2018-05-07T01:27:39.229Z,9.60
2018-05-07T01:30:07.020Z,9.70
2018-05-07T01:32:34.629Z,9.70
2018-05-07T01:35:02.283Z,9.60
2018-05-07T01:37:29.904Z,9.70
2018-05-07T01:39:57.544Z,9.30
2018-05-07T01:42:25.197Z,9.30
2018-05-07T01:44:52.824Z,9.40
2018-05-07T01:47:20.491Z,9.40
2018-05-07T01:49:48.099Z,9.30
2018-05-07T01:52:15.745Z,9.30
2018-05-07T01:54:43.388Z,9.30
2018-05-07T01:57:11.027Z,9.30
2018-05-07T01:59:38.679Z,9.20
2018-05-07T02:02:06.322Z,9.40
2018-05-07T02:04:33.928Z,9.40
2018-05-07T02:07:01.571Z,9.40
2018-05-07T02:09:29.179Z,9.60
2018-05-07T02:11:56.840Z,9.50
2018-05-07T02:14:24.447Z,9.60
2018-05-07T02:16:52.095Z,9.40
2018-05-07T02:19:19.704Z,9.70
2018-05-07T02:21:47.558Z,9.40
2018-05-07T02:24:15.194Z,9.30
2018-05-07T02:26:42.800Z,9.20
2018-05-07T02:29:10.440Z,9.40
2018-05-07T02:31:38.096Z,9.40
2018-05-07T02:34:05.771Z,9.20
2018-05-07T02:36:33.423Z,9.60
2018-05-07T02:39:01.071Z,9.70
2018-05-07T02:41:28.712Z,9.60
2018-05-07T02:43:56.359Z,9.80
2018-05-07T02:46:24.013Z,9.60
2018-05-07T02:48:52.656Z,9.70
2018-05-07T02:51:20.263Z,9.90
2018-05-07T02:53:47.916Z,10.00
2018-05-07T02:56:15.571Z,10.00
2018-05-07T02:58:43.990Z,10.00
2018-05-07T03:01:11.607Z,10.00
2018-05-07T03:03:40.025Z,10.20
2018-05-07T03:06:07.636Z,10.10
2018-05-07T03:08:36.077Z,10.40
2018-05-07T03:11:03.732Z,10.60
2018-05-07T03:13:31.374Z,11.00
2018-05-07T03:15:59.024Z,10.70
2018-05-07T03:18:26.639Z,11.20
2018-05-07T03:20:54.303Z,10.80
2018-05-07T03:23:22.675Z,11.20
2018-05-07T03:25:50.296Z,11.30
2018-05-07T03:28:17.947Z,11.50
2018-05-07T03:30:45.587Z,11.20
2018-05-07T03:33:14.015Z,11.20
2018-05-07T03:35:42.041Z,11.40
2018-05-07T03:38:10.730Z,11.30
2018-05-07T03:40:38.348Z,11.60
2018-05-07T03:43:06.014Z,11.20
2018-05-07T03:45:33.628Z,11.70
2018-05-07T03:48:01.279Z,11.70
2018-05-07T03:50:28.932Z,11.90
2018-05-07T03:52:57.996Z,11.60
2018-05-07T03:55:26.371Z,11.60
2018-05-07T03:57:54.166Z,11.60
2018-05-07T04:00:21.784Z,11.60
2018-05-07T04:02:49.431Z,11.60
2018-05-07T04:05:17.124Z,11.60
2018-05-07T04:07:45.558Z,11.60
2018-05-07T04:10:13.227Z,11.70
2018-05-07T04:15:16.799Z,11.60
2018-05-07T04:17:56.308Z,11.60
2018-05-07T04:20:35.739Z,11.60
2018-05-07T04:23:15.941Z,12.00
2018-05-07T04:25:43.591Z,11.70
2018-05-07T04:28:13.117Z,11.60
2018-05-07T04:30:41.107Z,11.70
2018-05-07T04:33:08.733Z,11.80
2018-05-07T04:35:38.459Z,12.40
2018-05-07T04:38:07.211Z,12.30
2018-05-07T04:40:35.073Z,12.90
2018-05-07T04:43:02.775Z,12.80
2018-05-07T04:45:30.449Z,12.80
2018-05-07T04:47:58.211Z,12.90
2018-05-07T04:50:25.819Z,13.60
2018-05-07T04:52:53.472Z,14.10
2018-05-07T04:55:23.191Z,15.30
2018-05-07T04:57:50.846Z,15.50
2018-05-07T05:00:19.044Z,15.80
2018-05-07T05:02:46.691Z,16.80
2018-05-07T05:05:14.348Z,16.50
2018-05-07T05:07:42.003Z,16.70
2018-05-07T05:10:09.654Z,16.70
2018-05-07T05:12:38.032Z,17.40
2018-05-07T05:15:07.345Z,17.50
2018-05-07T05:17:34.967Z,17.30
2018-05-07T05:20:02.619Z,17.80
2018-05-07T05:22:30.252Z,18.20
2018-05-07T05:24:58.034Z,18.30
2018-05-07T05:27:26.552Z,18.40
2018-05-07T05:29:54.141Z,18.80
2018-05-07T05:32:22.499Z,19.20
2018-05-07T05:34:50.149Z,19.20
2018-05-07T05:37:17.874Z,19.30
2018-05-07T05:39:46.899Z,19.70
2018-05-07T05:42:14.564Z,19.50
2018-05-07T05:44:43.204Z,20.30
2018-05-07T05:47:10.859Z,20.20
2018-05-07T05:49:38.521Z,19.90
2018-05-07T05:52:06.127Z,19.80
2018-05-07T05:54:33.771Z,20.10
2018-05-07T05:57:02.002Z,20.70
2018-05-07T05:59:29.651Z,20.60
2018-05-07T06:01:57.294Z,20.30
2018-05-07T06:04:24.945Z,20.90
2018-05-07T06:06:52.583Z,21.00
2018-05-07T06:09:21.723Z,20.90
2018-05-07T06:11:49.331Z,20.80
2018-05-07T06:14:16.988Z,21.50
2018-05-07T06:16:44.600Z,21.40
2018-05-07T06:19:12.239Z,21.40
2018-05-07T06:21:40.656Z,22.10
2018-05-07T06:24:08.443Z,21.70
2018-05-07T06:26:36.829Z,22.10
2018-05-07T06:29:04.458Z,21.80
2018-05-07T06:31:32.105Z,21.70
2018-05-07T06:33:59.715Z,21.40
2018-05-07T06:36:27.359Z,21.00
2018-05-07T06:38:54.973Z,21.50
2018-05-07T06:41:22.658Z,21.70
2018-05-07T06:43:50.295Z,21.80
2018-05-07T06:46:17.999Z,22.00
2018-05-07T06:48:46.417Z,22.70
2018-05-07T06:51:14.093Z,22.70
2018-05-07T06:53:42.312Z,22.30
2018-05-07T06:56:09.981Z,22.50
2018-05-07T06:58:38.373Z,22.10
2018-05-07T07:01:05.995Z,21.80
2018-05-07T07:03:33.652Z,22.00
2018-05-07T07:06:01.261Z,23.10
2018-05-07T07:08:29.870Z,21.90
2018-05-07T07:10:57.326Z,21.60
2018-05-07T07:13:24.976Z,21.90
2018-05-07T07:15:52.592Z,21.80
2018-05-07T07:18:20.254Z,22.00
2018-05-07T07:20:47.859Z,22.30
2018-05-07T07:23:16.204Z,22.50
2018-05-07T07:25:44.624Z,22.20
2018-05-07T07:28:12.682Z,22.30
2018-05-07T07:30:40.238Z,22.60
2018-05-07T07:33:07.899Z,22.70
2018-05-07T07:35:35.548Z,23.20
2018-05-07T07:38:03.215Z,22.40
2018-05-07T07:40:30.829Z,22.10
2018-05-07T07:42:58.469Z,22.10
2018-05-07T07:45:26.131Z,21.90
2018-05-07T07:47:53.750Z,22.60
2018-05-07T07:50:21.420Z,22.60
2018-05-07T07:52:49.060Z,22.20
2018-05-07T07:55:17.435Z,21.80
2018-05-07T07:57:45.857Z,21.50
2018-05-07T08:00:13.472Z,21.50
2018-05-07T08:02:41.479Z,22.00
2018-05-07T08:05:09.135Z,22.40
2018-05-07T08:07:36.793Z,22.60
2018-05-07T08:10:04.443Z,22.70
2018-05-07T08:12:32.088Z,22.80
2018-05-07T08:15:00.495Z,22.30
2018-05-07T08:17:28.160Z,22.30
2018-05-07T08:19:55.788Z,22.70
2018-05-07T08:22:23.452Z,22.70
2018-05-07T08:24:51.844Z,22.70
2018-05-07T08:27:19.488Z,22.50
2018-05-07T08:29:47.139Z,22.20
2018-05-07T08:32:14.769Z,22.10
2018-05-07T08:34:42.414Z,22.00
2018-05-07T08:37:10.024Z,22.40
2018-05-07T08:39:38.454Z,21.60
2018-05-07T08:42:06.110Z,21.60
2018-05-07T08:44:33.716Z,22.00
2018-05-07T08:47:01.372Z,22.00
2018-05-07T08:49:29.755Z,22.00
2018-05-07T08:51:58.731Z,22.20
2018-05-07T08:54:26.392Z,22.00
2018-05-07T08:56:54.054Z,22.00
2018-05-07T08:59:22.428Z,22.10
2018-05-07T09:01:50.809Z,22.50
2018-05-07T09:04:19.226Z,22.60
2018-05-07T09:06:47.555Z,22.40
2018-05-07T09:09:15.991Z,22.20
2018-05-07T09:11:43.614Z,22.10
2018-05-07T09:14:11.997Z,22.00
2018-05-07T09:16:41.011Z,22.50
2018-05-07T09:19:08.646Z,22.20
2018-05-07T09:21:36.867Z,22.40
2018-05-07T09:24:04.512Z,22.30
2018-05-07T09:26:32.496Z,22.30
2018-05-07T09:29:00.382Z,22.50
2018-05-07T09:31:28.179Z,22.40
2018-05-07T09:33:56.591Z,22.20
2018-05-07T09:36:24.217Z,22.20
2018-05-07T09:38:51.887Z,22.10
2018-05-07T09:41:19.557Z,22.80
2018-05-07T09:43:47.207Z,22.70
2018-05-07T09:46:14.855Z,22.40
2018-05-07T09:48:43.236Z,22.60
2018-05-07T09:51:10.900Z,22.20
2018-05-07T09:53:39.287Z,22.60
2018-05-07T09:56:06.908Z,22.80
2018-05-07T09:58:34.566Z,22.50
2018-05-07T10:01:02.176Z,22.50
2018-05-07T10:03:29.796Z,23.30
2018-05-07T10:05:57.442Z,22.90
2018-05-07T10:08:25.066Z,22.60
2018-05-07T10:10:52.724Z,22.60
2018-05-07T10:13:20.384Z,22.70
2018-05-07T10:15:48.044Z,22.90
2018-05-07T10:18:15.667Z,22.80
2018-05-07T10:20:44.053Z,23.10
2018-05-07T10:23:12.483Z,23.20
2018-05-07T10:25:40.108Z,23.00
2018-05-07T10:28:09.207Z,23.70
2018-05-07T10:30:36.859Z,23.00
2018-05-07T10:33:04.501Z,23.20
2018-05-07T10:35:32.187Z,23.40
2018-05-07T10:37:59.804Z,23.20
2018-05-07T10:40:27.463Z,22.60
2018-05-07T10:42:55.072Z,22.50
2018-05-07T10:45:22.715Z,22.60
2018-05-07T10:47:50.328Z,22.80
2018-05-07T10:50:17.976Z,23.20
2018-05-07T10:52:45.639Z,22.90
2018-05-07T10:55:13.256Z,22.90
2018-05-07T10:57:40.915Z,23.00
2018-05-07T11:00:08.531Z,23.10
2018-05-07T11:02:36.734Z,23.20
2018-05-07T11:05:04.341Z,23.60
2018-05-07T11:07:31.987Z,23.30
2018-05-07T11:10:00.364Z,23.30
2018-05-07T11:12:27.985Z,23.20
2018-05-07T11:14:56.417Z,23.00
2018-05-07T11:17:24.063Z,23.00
2018-05-07T11:19:51.808Z,23.20
2018-05-07T11:22:19.377Z,23.60
2018-05-07T11:24:47.979Z,23.50
2018-05-07T11:27:15.638Z,23.50
2018-05-07T11:29:43.279Z,23.30
2018-05-07T11:32:10.896Z,23.50
2018-05-07T11:34:39.300Z,23.90
2018-05-07T11:37:06.954Z,23.90
2018-05-07T11:39:35.327Z,24.10
2018-05-07T11:42:03.974Z,24.10
2018-05-07T11:44:31.671Z,24.10
2018-05-07T11:47:00.083Z,23.70
2018-05-07T11:49:27.703Z,23.60
2018-05-07T11:51:55.355Z,23.80
2018-05-07T11:54:23.285Z,23.90
2018-05-07T11:56:50.940Z,23.50
2018-05-07T11:59:18.592Z,23.50
2018-05-07T12:01:46.240Z,23.90
2018-05-07T12:04:13.900Z,23.90
2018-05-07T12:06:42.114Z,24.10
2018-05-07T12:09:09.747Z,24.30
2018-05-07T12:11:37.407Z,24.00
2018-05-07T12:14:05.016Z,23.90
2018-05-07T12:16:32.741Z,23.80
2018-05-07T12:19:00.343Z,23.70
2018-05-07T12:21:27.995Z,23.90
2018-05-07T12:23:55.620Z,24.10
2018-05-07T12:26:23.277Z,23.90
2018-05-07T12:28:50.911Z,24.40
2018-05-07T12:31:18.563Z,24.00
2018-05-07T12:33:46.187Z,23.80
2018-05-07T12:36:13.847Z,23.90
2018-05-07T12:38:41.499Z,24.10
2018-05-07T12:41:09.892Z,24.30
2018-05-07T12:43:37.572Z,24.30
2018-05-07T12:46:05.977Z,24.40
2018-05-07T12:48:33.631Z,24.30
2018-05-07T12:51:01.279Z,24.30
2018-05-07T12:53:28.936Z,24.30
2018-05-07T12:55:57.356Z,24.00
2018-05-07T12:58:24.991Z,24.10
2018-05-07T13:00:52.667Z,24.20
2018-05-07T13:03:20.337Z,24.30
2018-05-07T13:05:47.979Z,24.10
2018-05-07T13:08:17.640Z,24.50
2018-05-07T13:10:45.252Z,24.10
2018-05-07T13:13:12.920Z,24.30
2018-05-07T13:15:40.525Z,24.70
2018-05-07T13:18:08.171Z,24.60
2018-05-07T13:20:36.619Z,24.50
2018-05-07T13:23:04.301Z,24.50
2018-05-07T13:25:31.954Z,24.40
2018-05-07T13:27:59.560Z,24.40
2018-05-07T13:30:27.216Z,24.50
2018-05-07T13:32:55.636Z,24.40
2018-05-07T13:35:24.163Z,24.40
2018-05-07T13:37:52.039Z,24.50
2018-05-07T13:40:20.421Z,24.70
2018-05-07T13:42:48.848Z,24.60
2018-05-07T13:45:17.075Z,24.60
2018-05-07T13:47:44.730Z,24.90
2018-05-07T13:50:12.364Z,24.60
2018-05-07T13:52:40.008Z,24.60
2018-05-07T13:55:07.623Z,24.70
2018-05-07T13:57:35.423Z,24.70
2018-05-07T14:00:03.185Z,24.70
2018-05-07T14:02:30.872Z,24.60
2018-05-07T14:04:58.490Z,24.40
2018-05-07T14:07:26.143Z,24.50
2018-05-07T14:09:53.757Z,24.60
2018-05-07T14:12:22.191Z,24.10
2018-05-07T14:14:49.850Z,24.60
2018-05-07T14:17:17.477Z,24.70
2018-05-07T14:19:45.890Z,24.60
2018-05-07T14:22:13.515Z,24.60
2018-05-07T14:24:41.342Z,24.50
2018-05-07T14:27:08.995Z,24.60
2018-05-07T14:29:36.748Z,24.40
2018-05-07T14:32:04.409Z,24.60
2018-05-07T14:34:32.020Z,24.70
2018-05-07T14:36:59.671Z,25.00
2018-05-07T14:39:28.064Z,24.90
2018-05-07T14:41:56.500Z,24.70
2018-05-07T14:44:24.150Z,24.70
2018-05-07T14:46:52.355Z,24.50
2018-05-07T14:49:20.783Z,24.50
2018-05-07T14:51:48.393Z,24.50
2018-05-07T14:54:16.186Z,24.60
2018-05-07T14:56:44.391Z,24.60
2018-05-07T14:59:12.053Z,24.50
2018-05-07T15:01:39.716Z,24.60
2018-05-07T15:04:07.379Z,24.60
2018-05-07T15:06:34.983Z,24.70
2018-05-07T15:09:02.657Z,24.50
2018-05-07T15:11:30.311Z,24.70
2018-05-07T15:14:10.488Z,24.60
2018-05-07T15:16:38.133Z,24.60
2018-05-07T15:19:05.748Z,24.60
2018-05-07T15:21:33.398Z,24.70
2018-05-07T15:24:01.014Z,24.60
2018-05-07T15:26:28.675Z,24.60
2018-05-07T15:28:56.291Z,24.40
2018-05-07T15:31:23.906Z,24.50
2018-05-07T15:33:51.548Z,24.20
2018-05-07T15:36:19.228Z,24.00
2018-05-07T15:38:47.028Z,24.00
2018-05-07T15:41:14.643Z,23.80
2018-05-07T15:43:42.341Z,23.80
2018-05-07T15:46:09.955Z,23.80
2018-05-07T15:48:37.612Z,23.80
2018-05-07T15:51:05.238Z,23.70
2018-05-07T15:53:32.911Z,23.80
2018-05-07T15:56:01.341Z,23.50
2018-05-07T15:58:28.943Z,23.60
2018-05-07T16:00:56.591Z,23.40
2018-05-07T16:03:24.371Z,23.80
2018-05-07T16:05:53.275Z,23.50
2018-05-07T16:08:21.700Z,23.50
2018-05-07T16:10:51.443Z,23.50
2018-05-07T16:13:19.296Z,23.40
2018-05-07T16:15:46.965Z,23.70
2018-05-07T16:18:15.460Z,23.30
2018-05-07T16:20:43.169Z,23.30
2018-05-07T16:23:10.749Z,23.20
2018-05-07T16:25:39.255Z,22.90
2018-05-07T16:28:07.668Z,23.20
2018-05-07T16:30:35.205Z,23.50
2018-05-07T16:33:03.624Z,23.20
2018-05-07T16:35:32.659Z,23.20
2018-05-07T16:38:01.578Z,23.40
2018-05-07T16:40:30.731Z,23.30
2018-05-07T16:42:58.607Z,22.80
2018-05-07T16:45:26.260Z,22.70
2018-05-07T16:47:53.880Z,22.80
2018-05-07T16:50:21.573Z,22.70
2018-05-07T16:52:50.145Z,22.70
2018-05-07T16:55:17.804Z,22.50
2018-05-07T16:57:45.866Z,22.70
2018-05-07T17:00:13.502Z,22.50
2018-05-07T17:02:41.164Z,22.30
2018-05-07T17:05:12.620Z,22.20
2018-05-07T17:07:40.716Z,22.30
2018-05-07T17:10:08.331Z,22.10
2018-05-07T17:12:37.697Z,21.90
2018-05-07T17:15:05.313Z,22.40
2018-05-07T17:17:32.977Z,22.70
2018-05-07T17:20:00.646Z,22.40
2018-05-07T17:22:28.321Z,22.00
2018-05-07T17:24:55.978Z,22.10
2018-05-07T17:27:23.630Z,21.70
2018-05-07T17:29:51.244Z,21.40
2018-05-07T17:32:19.662Z,21.30
2018-05-07T17:34:47.278Z,21.10
2018-05-07T17:37:14.935Z,20.60
2018-05-07T17:39:43.410Z,20.50
2018-05-07T17:42:11.068Z,20.70
2018-05-07T17:44:51.203Z,20.50
2018-05-07T17:47:31.462Z,20.40
2018-05-07T17:49:59.551Z,20.00
2018-05-07T17:52:27.951Z,20.50
2018-05-07T17:54:55.560Z,20.40
2018-05-07T17:57:23.216Z,20.40
2018-05-07T17:59:50.966Z,20.20
2018-05-07T18:02:19.329Z,19.60
2018-05-07T18:04:46.947Z,19.90
2018-05-07T18:07:14.603Z,19.90
2018-05-07T18:09:42.232Z,19.80
2018-05-07T18:12:09.848Z,19.80
2018-05-07T18:14:37.495Z,19.80
2018-05-07T18:17:05.899Z,19.10
2018-05-07T18:19:33.551Z,19.30
2018-05-07T18:22:01.360Z,19.20
2018-05-07T18:24:29.008Z,19.20
2018-05-07T18:26:57.333Z,19.40
2018-05-07T18:29:25.271Z,19.40
2018-05-07T18:31:53.025Z,18.80
2018-05-07T18:34:20.707Z,18.80
2018-05-07T18:36:48.328Z,18.80
2018-05-07T18:39:15.979Z,18.60
2018-05-07T18:41:43.631Z,18.30
2018-05-07T18:44:11.268Z,18.80
2018-05-07T18:46:39.680Z,18.10
2018-05-07T18:49:07.292Z,18.30
2018-05-07T18:51:34.954Z,18.10
2018-05-07T18:54:02.588Z,18.00
2018-05-07T18:56:30.242Z,17.90
2018-05-07T18:58:58.344Z,17.90
2018-05-07T19:01:25.999Z,17.90
2018-05-07T19:03:54.156Z,17.80
2018-05-07T19:06:21.807Z,17.50
2018-05-07T19:08:49.410Z,17.30
2018-05-07T19:11:17.063Z,17.40
2018-05-07T19:13:44.719Z,17.30
2018-05-07T19:16:13.159Z,17.20
2018-05-07T19:18:40.775Z,17.40
2018-05-07T19:21:08.426Z,17.20
2018-05-07T19:23:36.081Z,17.30
2018-05-07T19:26:04.506Z,17.30
2018-05-07T19:28:32.270Z,17.10
2018-05-07T19:30:59.962Z,17.20
2018-05-07T19:33:27.623Z,17.10
2018-05-07T19:35:55.336Z,17.10
2018-05-07T19:38:23.735Z,16.60
2018-05-07T19:40:51.393Z,16.60
2018-05-07T19:43:19.063Z,16.40
2018-05-07T19:45:46.696Z,16.30
2018-05-07T19:48:14.866Z,16.40
2018-05-07T19:50:42.547Z,16.40
2018-05-07T19:53:10.204Z,16.30
2018-05-07T19:55:37.893Z,16.50
2018-05-07T19:58:05.539Z,16.30
2018-05-07T20:00:33.420Z,16.30
2018-05-07T20:03:01.031Z,16.40
2018-05-07T20:05:29.913Z,16.20
2018-05-07T20:07:57.585Z,16.20
2018-05-07T20:10:26.015Z,16.00
2018-05-07T20:12:54.383Z,15.80
2018-05-07T20:15:22.164Z,15.90
2018-05-07T20:17:50.600Z,15.80
2018-05-07T20:20:18.267Z,15.60
2018-05-07T20:22:45.874Z,15.80
2018-05-07T20:25:13.546Z,15.70
2018-05-07T20:27:41.199Z,15.70
2018-05-07T20:30:08.855Z,15.70
2018-05-07T20:32:36.463Z,15.70
2018-05-07T20:35:04.132Z,15.60
2018-05-07T20:37:32.500Z,15.60
2018-05-07T20:40:00.119Z,15.70
2018-05-07T20:42:28.486Z,15.20
2018-05-07T20:44:56.904Z,15.20
2018-05-07T20:47:24.777Z,15.30
2018-05-07T20:49:53.068Z,15.30
2018-05-07T20:52:21.532Z,15.20
2018-05-07T20:54:49.151Z,14.90
2018-05-07T20:57:16.918Z,15.20
2018-05-07T20:59:44.688Z,15.00
2018-05-07T21:02:12.304Z,14.90
2018-05-07T21:04:39.967Z,15.20
2018-05-07T21:07:07.574Z,15.10
2018-05-07T21:09:35.239Z,15.00
2018-05-07T21:12:02.880Z,15.20
2018-05-07T21:14:30.487Z,15.00
2018-05-07T21:16:58.140Z,15.00
2018-05-07T21:19:25.751Z,14.60
2018-05-07T21:21:53.414Z,14.50
2018-05-07T21:24:21.852Z,14.60
2018-05-07T21:26:49.529Z,14.40
2018-05-07T21:29:17.151Z,14.30
2018-05-07T21:31:45.037Z,14.30
2018-05-07T21:34:12.723Z,14.00
2018-05-07T21:36:40.401Z,14.10
2018-05-07T21:39:08.008Z,14.20
2018-05-07T21:41:35.840Z,14.50
2018-05-07T21:44:03.542Z,14.00
2018-05-07T21:46:31.164Z,14.10
2018-05-07T21:48:58.826Z,14.00
2018-05-07T21:51:26.439Z,14.00
2018-05-07T21:53:54.087Z,13.90
2018-05-07T21:56:21.695Z,14.10
2018-05-07T21:58:49.371Z,14.00
2018-05-07T22:01:17.031Z,13.70
2018-05-07T22:03:44.819Z,14.10
2018-05-07T22:06:12.436Z,14.00
2018-05-07T22:08:40.080Z,13.70
2018-05-07T22:11:07.739Z,13.70
2018-05-07T22:13:36.175Z,13.50
2018-05-07T22:16:03.867Z,13.80
2018-05-07T22:18:31.483Z,13.30
2018-05-07T22:20:59.094Z,13.70
2018-05-07T22:23:27.520Z,13.30
2018-05-07T22:25:55.164Z,13.30
2018-05-07T22:28:23.159Z,13.40
2018-05-07T22:30:50.767Z,13.40
2018-05-07T22:33:19.153Z,13.50
2018-05-07T22:35:47.570Z,13.40
2018-05-07T22:38:15.257Z,13.40
2018-05-07T22:40:43.012Z,13.40
2018-05-07T22:43:10.860Z,13.50
2018-05-07T22:45:38.599Z,13.50
2018-05-07T22:48:06.263Z,13.40
2018-05-07T22:50:33.923Z,13.00
2018-05-07T22:53:01.532Z,13.10
2018-05-07T22:55:29.939Z,12.90
2018-05-07T22:57:58.241Z,13.20
2018-05-07T23:00:25.910Z,12.90
2018-05-07T23:02:53.523Z,12.90
2018-05-07T23:05:21.181Z,12.90
2018-05-07T23:07:49.561Z,12.70
2018-05-07T23:10:18.239Z,12.50
2018-05-07T23:12:46.619Z,12.80
2018-05-07T23:15:15.039Z,12.80
2018-05-07T23:17:42.647Z,12.80
2018-05-07T23:20:11.088Z,12.80
2018-05-07T23:22:38.698Z,12.90
2018-05-07T23:25:06.315Z,12.80
2018-05-07T23:27:33.967Z,12.60
2018-05-07T23:30:01.630Z,12.90
2018-05-07T23:32:29.401Z,13.00
2018-05-07T23:34:57.052Z,12.80
2018-05-07T23:37:24.701Z,12.60
2018-05-07T23:39:52.371Z,12.90
2018-05-07T23:42:20.022Z,12.90
2018-05-07T23:44:47.676Z,12.90
2018-05-07T23:47:15.339Z,12.90
2018-05-07T23:49:42.991Z,13.00
2018-05-07T23:52:11.068Z,12.90
2018-05-07T23:54:38.676Z,12.70
2018-05-07T23:57:06.356Z,12.50
2018-05-07T23:59:34.767Z,12.60
